KLGC/LGC METAR and TAF weather

Enter ICAO airport designator
Station Type Date Time Source
KLGC METAR 2019/05/25 09:15 UTC NOAA

KLGC 250915Z AUTO 00000KT 1/2SM FG VV005 20/19 A3014 RMK AO2 VIS 1/4V5 T01970194


Station Type Date Time Source
KLGC Decoded METAR 2019/05/25 09:15 UTC NOAA

La Grange, Callaway Airport, GA, United States (KLGC) 33-00-32N 085-04-21W
May 25, 2019 - 05:15 AM EDT / 2019.05.25 0915 UTC
Wind: Calm:0
Visibility: 1/2 mile(s):0
Sky conditions: obscured
Weather: fog
Temperature: 67.5 F (19.7 C)
Dew Point: 66.9 F (19.4 C)
Relative Humidity: 98%
Pressure (altimeter): 30.14 in. Hg (1020 hPa)
ob: KLGC 250915Z AUTO 00000KT 1/2SM FG VV005 20/19 A3014 RMK AO2 VIS 1/4V5 T01970194
cycle: 9

Station Type Date Time Source
KLGC TAF UTC NOAA

Error!

Example: see airport list